sensor_id;sensor_type;location;lat;lon;timestamp;pressure;altitude;pressure_sealevel;temperature;humidity
64739;BME280;51175;51.186;0.276;2023-03-02T00:00:14;102138.38;;;11.47;62.85
64739;BME280;51175;51.186;0.276;2023-03-02T00:00:46;102144.47;;;11.48;62.92
64739;BME280;51175;51.186;0.276;2023-03-02T00:01:16;102145.50;;;11.47;62.85
64739;BME280;51175;51.186;0.276;2023-03-02T00:01:57;102139.41;;;11.46;62.66
64739;BME280;51175;51.186;0.276;2023-03-02T00:02:31;102139.41;;;11.46;62.66
64739;BME280;51175;51.186;0.276;2023-03-02T00:03:02;102137.56;;;11.47;62.75
64739;BME280;51175;51.186;0.276;2023-03-02T00:03:35;102135.94;;;11.46;62.72
64739;BME280;51175;51.186;0.276;2023-03-02T00:04:10;102140.44;;;11.45;62.75
64739;BME280;51175;51.186;0.276;2023-03-02T00:04:52;102142.28;;;11.45;62.90
64739;BME280;51175;51.186;0.276;2023-03-02T00:05:24;102138.00;;;11.43;62.83
64739;BME280;51175;51.186;0.276;2023-03-02T00:05:55;102138.00;;;11.43;62.91
64739;BME280;51175;51.186;0.276;2023-03-02T00:06:28;102137.22;;;11.43;62.79
64739;BME280;51175;51.186;0.276;2023-03-02T00:07:04;102131.09;;;11.42;63.05
64739;BME280;51175;51.186;0.276;2023-03-02T00:07:36;102137.22;;;11.43;62.69
64739;BME280;51175;51.186;0.276;2023-03-02T00:08:08;102134.78;;;11.41;62.82
64739;BME280;51175;51.186;0.276;2023-03-02T00:08:39;102132.16;;;11.41;62.83
64739;BME280;51175;51.186;0.276;2023-03-02T00:09:10;102132.94;;;11.42;63.00
64739;BME280;51175;51.186;0.276;2023-03-02T00:09:40;102130.50;;;11.40;62.74
64739;BME280;51175;51.186;0.276;2023-03-02T00:10:12;102135.59;;;11.42;62.93
64739;BME280;51175;51.186;0.276;2023-03-02T00:10:42;102137.44;;;11.41;62.94
64739;BME280;51175;51.186;0.276;2023-03-02T00:11:13;102135.81;;;11.40;62.84
64739;BME280;51175;51.186;0.276;2023-03-02T00:11:44;102137.44;;;11.41;62.81
64739;BME280;51175;51.186;0.276;2023-03-02T00:12:15;102130.50;;;11.40;62.90
64739;BME280;51175;51.186;0.276;2023-03-02T00:12:45;102135.81;;;11.40;62.80
64739;BME280;51175;51.186;0.276;2023-03-02T00:13:16;102134.19;;;11.39;62.87
64739;BME280;51175;51.186;0.276;2023-03-02T00:13:46;102136.03;;;11.39;62.78
64739;BME280;51175;51.186;0.276;2023-03-02T00:14:17;102139.50;;;11.39;62.91
64739;BME280;51175;51.186;0.276;2023-03-02T00:14:47;102135.25;;;11.38;63.09
64739;BME280;51175;51.186;0.276;2023-03-02T00:15:18;102135.25;;;11.38;62.79
64739;BME280;51175;51.186;0.276;2023-03-02T00:15:48;102136.03;;;11.39;62.78
64739;BME280;51175;51.186;0.276;2023-03-02T00:16:18;102132.59;;;11.38;63.00
64739;BME280;51175;51.186;0.276;2023-03-02T00:16:49;102138.69;;;11.39;62.79
64739;BME280;51175;51.186;0.276;2023-03-02T00:17:19;102136.84;;;11.39;62.96
64739;BME280;51175;51.186;0.276;2023-03-02T00:17:56;102135.25;;;11.38;62.97
64739;BME280;51175;51.186;0.276;2023-03-02T00:18:27;102137.88;;;11.38;62.87
64739;BME280;51175;51.186;0.276;2023-03-02T00:18:57;102131.78;;;11.38;62.89
64739;BME280;51175;51.186;0.276;2023-03-02T00:19:28;102136.03;;;11.39;62.82
64739;BME280;51175;51.186;0.276;2023-03-02T00:19:58;102129.13;;;11.38;62.79
64739;BME280;51175;51.186;0.276;2023-03-02T00:20:40;102130.19;;;11.37;62.88
64739;BME280;51175;51.186;0.276;2023-03-02T00:21:10;102136.25;;;11.37;63.02
64739;BME280;51175;51.186;0.276;2023-03-02T00:21:41;102129.38;;;11.36;62.97
64739;BME280;51175;51.186;0.276;2023-03-02T00:22:11;102137.28;;;11.36;62.90
64739;BME280;51175;51.186;0.276;2023-03-02T00:22:43;102137.28;;;11.36;62.74
64739;BME280;51175;51.186;0.276;2023-03-02T00:23:14;102139.13;;;11.36;62.92
64739;BME280;51175;51.186;0.276;2023-03-02T00:23:44;102136.47;;;11.36;62.56
64739;BME280;51175;51.186;0.276;2023-03-02T00:24:14;102127.75;;;11.35;62.58
64739;BME280;51175;51.186;0.276;2023-03-02T00:24:45;102137.28;;;11.36;62.72
64739;BME280;51175;51.186;0.276;2023-03-02T00:25:16;102133.03;;;11.35;62.93
64739;BME280;51175;51.186;0.276;2023-03-02T00:25:46;102140.16;;;11.35;62.78
64739;BME280;51175;51.186;0.276;2023-03-02T00:26:17;102133.28;;;11.34;62.89
64739;BME280;51175;51.186;0.276;2023-03-02T00:26:48;102131.41;;;11.34;62.84
64739;BME280;51175;51.186;0.276;2023-03-02T00:27:19;102125.34;;;11.34;62.82
64739;BME280;51175;51.186;0.276;2023-03-02T00:27:51;102137.75;;;11.33;62.89
64739;BME280;51175;51.186;0.276;2023-03-02T00:28:22;102134.28;;;11.33;63.08
64739;BME280;51175;51.186;0.276;2023-03-02T00:28:52;102128.19;;;11.32;62.73
64739;BME280;51175;51.186;0.276;2023-03-02T00:29:23;102133.47;;;11.32;62.78
64739;BME280;51175;51.186;0.276;2023-03-02T00:29:53;102130.81;;;11.32;62.95
64739;BME280;51175;51.186;0.276;2023-03-02T00:30:23;102125.75;;;11.30;62.84
64739;BME280;51175;51.186;0.276;2023-03-02T00:30:54;102127.38;;;11.32;62.97
64739;BME280;51175;51.186;0.276;2023-03-02T00:31:24;102130.25;;;11.30;63.01
64739;BME280;51175;51.186;0.276;2023-03-02T00:31:54;102128.41;;;11.30;63.05
64739;BME280;51175;51.186;0.276;2023-03-02T00:32:25;102130.25;;;11.30;62.90
64739;BME280;51175;51.186;0.276;2023-03-02T00:32:55;102130.25;;;11.30;63.02
64739;BME280;51175;51.186;0.276;2023-03-02T00:33:27;102127.63;;;11.30;62.78
64739;BME280;51175;51.186;0.276;2023-03-02T00:33:57;102121.50;;;11.29;62.78
64739;BME280;51175;51.186;0.276;2023-03-02T00:34:29;102124.16;;;11.29;62.82
64739;BME280;51175;51.186;0.276;2023-03-02T00:35:01;102127.84;;;11.28;62.75
64739;BME280;51175;51.186;0.276;2023-03-02T00:35:39;102120.69;;;11.29;63.00
64739;BME280;51175;51.186;0.276;2023-03-02T00:36:17;102122.53;;;11.28;62.81
64739;BME280;51175;51.186;0.276;2023-03-02T00:36:48;102127.03;;;11.28;63.02
64739;BME280;51175;51.186;0.276;2023-03-02T00:37:18;102120.91;;;11.27;63.07
64739;BME280;51175;51.186;0.276;2023-03-02T00:37:48;102122.78;;;11.27;62.79
64739;BME280;51175;51.186;0.276;2023-03-02T00:38:19;102124.59;;;11.26;62.85
64739;BME280;51175;51.186;0.276;2023-03-02T00:38:50;102117.47;;;11.27;62.94
64739;BME280;51175;51.186;0.276;2023-03-02T00:39:23;102128.06;;;11.27;63.01
64739;BME280;51175;51.186;0.276;2023-03-02T00:39:54;102121.13;;;11.26;62.99
64739;BME280;51175;51.186;0.276;2023-03-02T00:40:24;102125.41;;;11.27;62.85
64739;BME280;51175;51.186;0.276;2023-03-02T00:40:54;102121.94;;;11.26;62.98
64739;BME280;51175;51.186;0.276;2023-03-02T00:41:25;102120.13;;;11.27;62.97
64739;BME280;51175;51.186;0.276;2023-03-02T00:41:55;102124.59;;;11.26;62.92
64739;BME280;51175;51.186;0.276;2023-03-02T00:42:26;102121.13;;;11.26;62.87
64739;BME280;51175;51.186;0.276;2023-03-02T00:42:56;102125.63;;;11.25;63.01
64739;BME280;51175;51.186;0.276;2023-03-02T00:43:26;102123.00;;;11.25;62.98
64739;BME280;51175;51.186;0.276;2023-03-02T00:43:57;102113.44;;;11.24;62.99
64739;BME280;51175;51.186;0.276;2023-03-02T00:44:27;102124.81;;;11.25;62.99
64739;BME280;51175;51.186;0.276;2023-03-02T00:44:58;102126.66;;;11.24;62.96
64739;BME280;51175;51.186;0.276;2023-03-02T00:45:30;102125.03;;;11.23;62.88
64739;BME280;51175;51.186;0.276;2023-03-02T00:46:07;102118.72;;;11.24;62.99
64739;BME280;51175;51.186;0.276;2023-03-02T00:46:38;102121.59;;;11.23;62.92
64739;BME280;51175;51.186;0.276;2023-03-02T00:47:08;102120.81;;;11.22;62.95
64739;BME280;51175;51.186;0.276;2023-03-02T00:47:39;102119.97;;;11.22;62.91
64739;BME280;51175;51.186;0.276;2023-03-02T00:48:09;102120.81;;;11.22;62.77
64739;BME280;51175;51.186;0.276;2023-03-02T00:48:40;102119.97;;;11.22;62.72
64739;BME280;51175;51.186;0.276;2023-03-02T00:49:11;102118.38;;;11.21;62.87
64739;BME280;51175;51.186;0.276;2023-03-02T00:49:41;102119.97;;;11.22;63.02
64739;BME280;51175;51.186;0.276;2023-03-02T00:50:18;102122.63;;;11.22;62.92
64739;BME280;51175;51.186;0.276;2023-03-02T00:50:48;102116.53;;;11.21;62.90
64739;BME280;51175;51.186;0.276;2023-03-02T00:51:19;102115.72;;;11.21;63.07
64739;BME280;51175;51.186;0.276;2023-03-02T00:51:49;102122.03;;;11.20;62.75
64739;BME280;51175;51.186;0.276;2023-03-02T00:52:20;102121.25;;;11.19;62.81
64739;BME280;51175;51.186;0.276;2023-03-02T00:52:50;102119.38;;;11.20;63.03
64739;BME280;51175;51.186;0.276;2023-03-02T00:53:21;102112.28;;;11.20;63.04
64739;BME280;51175;51.186;0.276;2023-03-02T00:53:51;102112.50;;;11.18;62.85
64739;BME280;51175;51.186;0.276;2023-03-02T00:54:21;102121.25;;;11.19;62.79
64739;BME280;51175;51.186;0.276;2023-03-02T00:54:52;102121.25;;;11.19;62.85
64739;BME280;51175;51.186;0.276;2023-03-02T00:55:22;102119.59;;;11.18;62.73
64739;BME280;51175;51.186;0.276;2023-03-02T00:55:53;102114.31;;;11.18;62.86
64739;BME280;51175;51.186;0.276;2023-03-02T00:56:24;102116.19;;;11.17;62.86
64739;BME280;51175;51.186;0.276;2023-03-02T00:56:54;102116.19;;;11.17;62.84
64739;BME280;51175;51.186;0.276;2023-03-02T00:57:25;102115.38;;;11.17;63.16
64739;BME280;51175;51.186;0.276;2023-03-02T00:57:55;102116.19;;;11.17;63.00
64739;BME280;51175;51.186;0.276;2023-03-02T00:58:26;102113.53;;;11.17;62.94
64739;BME280;51175;51.186;0.276;2023-03-02T00:58:57;102110.06;;;11.17;62.92
64739;BME280;51175;51.186;0.276;2023-03-02T00:59:27;102110.88;;;11.17;62.85
64739;BME280;51175;51.186;0.276;2023-03-02T00:59:58;102106.63;;;11.16;63.00
64739;BME280;51175;51.186;0.276;2023-03-02T01:00:29;102114.53;;;11.16;62.91
64739;BME280;51175;51.186;0.276;2023-03-02T01:01:06;102117.19;;;11.16;62.81
64739;BME280;51175;51.186;0.276;2023-03-02T01:01:37;102110.28;;;11.15;62.93
64739;BME280;51175;51.186;0.276;2023-03-02T01:02:07;102111.13;;;11.16;62.98
64739;BME280;51175;51.186;0.276;2023-03-02T01:02:38;102105.00;;;11.15;62.81
64739;BME280;51175;51.186;0.276;2023-03-02T01:03:12;102106.84;;;11.15;62.98
64739;BME280;51175;51.186;0.276;2023-03-02T01:03:43;102109.47;;;11.15;62.88
64739;BME280;51175;51.186;0.276;2023-03-02T01:04:13;102105.22;;;11.14;63.00
64739;BME280;51175;51.186;0.276;2023-03-02T01:04:44;102112.13;;;11.15;63.01
64739;BME280;51175;51.186;0.276;2023-03-02T01:05:16;102104.41;;;11.13;62.80
64739;BME280;51175;51.186;0.276;2023-03-02T01:05:46;102107.06;;;11.13;62.89
64739;BME280;51175;51.186;0.276;2023-03-02T01:06:18;102105.47;;;11.12;62.71
64739;BME280;51175;51.186;0.276;2023-03-02T01:06:49;102097.53;;;11.12;62.81
64739;BME280;51175;51.186;0.276;2023-03-02T01:07:20;102104.41;;;11.13;62.83
64739;BME280;51175;51.186;0.276;2023-03-02T01:07:50;102109.69;;;11.13;62.80
64739;BME280;51175;51.186;0.276;2023-03-02T01:08:21;102102.81;;;11.12;62.91
64739;BME280;51175;51.186;0.276;2023-03-02T01:08:52;102106.28;;;11.13;62.97
64739;BME280;51175;51.186;0.276;2023-03-02T01:09:23;102100.16;;;11.12;62.95
64739;BME280;51175;51.186;0.276;2023-03-02T01:09:53;102099.34;;;11.12;62.88
64739;BME280;51175;51.186;0.276;2023-03-02T01:10:24;102104.63;;;11.12;62.76
64739;BME280;51175;51.186;0.276;2023-03-02T01:10:54;102100.16;;;11.12;62.97
64739;BME280;51175;51.186;0.276;2023-03-02T01:11:24;102097.75;;;11.11;62.96
64739;BME280;51175;51.186;0.276;2023-03-02T01:11:55;102106.50;;;11.11;62.82
64739;BME280;51175;51.186;0.276;2023-03-02T01:12:25;102102.22;;;11.10;62.97
64739;BME280;51175;51.186;0.276;2023-03-02T01:12:55;102094.28;;;11.10;63.02
64739;BME280;51175;51.186;0.276;2023-03-02T01:13:26;102099.56;;;11.10;62.95
64739;BME280;51175;51.186;0.276;2023-03-02T01:13:57;102096.94;;;11.10;62.96
64739;BME280;51175;51.186;0.276;2023-03-02T01:14:27;102097.97;;;11.09;62.90
64739;BME280;51175;51.186;0.276;2023-03-02T01:14:58;102091.06;;;11.08;62.80
64739;BME280;51175;51.186;0.276;2023-03-02T01:15:28;102099.78;;;11.09;62.90
64739;BME280;51175;51.186;0.276;2023-03-02T01:16:02;102096.38;;;11.08;62.93
64739;BME280;51175;51.186;0.276;2023-03-02T01:16:32;102091.06;;;11.08;62.99
64739;BME280;51175;51.186;0.276;2023-03-02T01:17:04;102102.66;;;11.07;62.89
64739;BME280;51175;51.186;0.276;2023-03-02T01:17:35;102094.72;;;11.07;62.93
64739;BME280;51175;51.186;0.276;2023-03-02T01:18:05;102096.59;;;11.07;62.83
64739;BME280;51175;51.186;0.276;2023-03-02T01:18:36;102089.66;;;11.05;62.92
64739;BME280;51175;51.186;0.276;2023-03-02T01:19:08;102093.94;;;11.07;63.12
64739;BME280;51175;51.186;0.276;2023-03-02T01:19:38;102096.59;;;11.07;63.06
64739;BME280;51175;51.186;0.276;2023-03-02T01:20:10;102096.59;;;11.07;62.82
64739;BME280;51175;51.186;0.276;2023-03-02T01:20:40;102095.78;;;11.06;63.15
64739;BME280;51175;51.186;0.276;2023-03-02T01:21:13;102101.06;;;11.06;62.90
64739;BME280;51175;51.186;0.276;2023-03-02T01:21:44;102100.03;;;11.07;63.02
64739;BME280;51175;51.186;0.276;2023-03-02T01:22:14;102093.13;;;11.06;62.96
64739;BME280;51175;51.186;0.276;2023-03-02T01:22:44;102097.59;;;11.05;62.78
64739;BME280;51175;51.186;0.276;2023-03-02T01:23:15;102092.31;;;11.05;62.71
64739;BME280;51175;51.186;0.276;2023-03-02T01:23:48;102097.03;;;11.03;62.85
64739;BME280;51175;51.186;0.276;2023-03-02T01:24:18;102095.19;;;11.04;63.00
64739;BME280;51175;51.186;0.276;2023-03-02T01:24:49;102097.03;;;11.03;62.85
64739;BME280;51175;51.186;0.276;2023-03-02T01:25:19;102096.22;;;11.03;62.94
64739;BME280;51175;51.186;0.276;2023-03-02T01:25:49;102095.41;;;11.02;62.87
64739;BME280;51175;51.186;0.276;2023-03-02T01:26:21;102096.22;;;11.03;63.00
64739;BME280;51175;51.186;0.276;2023-03-02T01:26:51;102091.97;;;11.02;62.99
64739;BME280;51175;51.186;0.276;2023-03-02T01:27:22;102090.94;;;11.03;63.01
64739;BME280;51175;51.186;0.276;2023-03-02T01:27:52;102099.91;;;11.02;62.98
64739;BME280;51175;51.186;0.276;2023-03-02T01:28:23;102097.25;;;11.02;62.91
64739;BME280;51175;51.186;0.276;2023-03-02T01:28:53;102089.31;;;11.02;63.00
64739;BME280;51175;51.186;0.276;2023-03-02T01:29:25;102091.97;;;11.02;62.89
64739;BME280;51175;51.186;0.276;2023-03-02T01:29:55;102093.78;;;11.01;63.16
64739;BME280;51175;51.186;0.276;2023-03-02T01:30:25;102087.69;;;11.01;62.76
64739;BME280;51175;51.186;0.276;2023-03-02T01:30:56;102092.97;;;11.01;62.93
64739;BME280;51175;51.186;0.276;2023-03-02T01:31:27;102092.97;;;11.01;62.89
64739;BME280;51175;51.186;0.276;2023-03-02T01:31:57;102086.09;;;11.00;62.87
64739;BME280;51175;51.186;0.276;2023-03-02T01:32:28;102091.38;;;11.00;63.05
64739;BME280;51175;51.186;0.276;2023-03-02T01:32:58;102094.25;;;10.98;62.92
64739;BME280;51175;51.186;0.276;2023-03-02T01:33:29;102090.56;;;10.99;62.97
64739;BME280;51175;51.186;0.276;2023-03-02T01:34:00;102097.66;;;10.99;63.19
64739;BME280;51175;51.186;0.276;2023-03-02T01:34:30;102094.25;;;10.98;63.03
64739;BME280;51175;51.186;0.276;2023-03-02T01:35:01;102094.25;;;10.98;62.98
64739;BME280;51175;51.186;0.276;2023-03-02T01:35:31;102092.59;;;10.97;62.76
64739;BME280;51175;51.186;0.276;2023-03-02T01:36:02;102095.25;;;10.97;63.04
64739;BME280;51175;51.186;0.276;2023-03-02T01:36:32;102096.28;;;10.96;62.88
64739;BME280;51175;51.186;0.276;2023-03-02T01:37:03;102097.09;;;10.97;63.11
64739;BME280;51175;51.186;0.276;2023-03-02T01:37:33;102094.47;;;10.97;62.89
64739;BME280;51175;51.186;0.276;2023-03-02T01:38:03;102097.09;;;10.97;62.98
64739;BME280;51175;51.186;0.276;2023-03-02T01:38:34;102095.47;;;10.96;63.06
64739;BME280;51175;51.186;0.276;2023-03-02T01:39:04;102093.66;;;10.96;62.94
64739;BME280;51175;51.186;0.276;2023-03-02T01:39:35;102092.03;;;10.95;62.87
64739;BME280;51175;51.186;0.276;2023-03-02T01:40:05;102088.34;;;10.96;63.06
64739;BME280;51175;51.186;0.276;2023-03-02T01:40:36;102082.25;;;10.96;62.86
64739;BME280;51175;51.186;0.276;2023-03-02T01:41:07;102094.69;;;10.95;62.95
64739;BME280;51175;51.186;0.276;2023-03-02T01:41:37;102091.22;;;10.95;62.83
64739;BME280;51175;51.186;0.276;2023-03-02T01:42:07;102085.94;;;10.95;62.97
64739;BME280;51175;51.186;0.276;2023-03-02T01:42:44;102093.88;;;10.95;62.97
64739;BME280;51175;51.186;0.276;2023-03-02T01:43:15;102087.75;;;10.94;63.07
64739;BME280;51175;51.186;0.276;2023-03-02T01:43:45;102091.22;;;10.95;62.86
64739;BME280;51175;51.186;0.276;2023-03-02T01:44:37;102098.34;;;10.94;63.03
64739;BME280;51175;51.186;0.276;2023-03-02T01:46:20;102085.56;;;10.91;62.92
64739;BME280;51175;51.186;0.276;2023-03-02T01:46:52;102097.19;;;10.90;62.93
64739;BME280;51175;51.186;0.276;2023-03-02T01:47:37;102095.34;;;10.90;62.97
64739;BME280;51175;51.186;0.276;2023-03-02T01:48:10;102094.75;;;10.88;62.88
64739;BME280;51175;51.186;0.276;2023-03-02T01:49:26;102095.78;;;10.87;62.94
64739;BME280;51175;51.186;0.276;2023-03-02T01:50:48;102086.22;;;10.86;62.95
64739;BME280;51175;51.186;0.276;2023-03-02T01:51:23;102094.16;;;10.86;62.80
64739;BME280;51175;51.186;0.276;2023-03-02T01:51:54;102090.72;;;10.86;63.13
64739;BME280;51175;51.186;0.276;2023-03-02T01:52:26;102095.19;;;10.85;63.12
64739;BME280;51175;51.186;0.276;2023-03-02T01:52:58;102091.75;;;10.85;63.18
64739;BME280;51175;51.186;0.276;2023-03-02T01:53:30;102089.09;;;10.85;63.27
64739;BME280;51175;51.186;0.276;2023-03-02T01:54:06;102092.78;;;10.84;63.07
64739;BME280;51175;51.186;0.276;2023-03-02T01:54:39;102090.13;;;10.84;63.16
64739;BME280;51175;51.186;0.276;2023-03-02T01:55:14;102091.97;;;10.83;63.21
64739;BME280;51175;51.186;0.276;2023-03-02T01:55:46;102084.84;;;10.84;63.12
64739;BME280;51175;51.186;0.276;2023-03-02T01:56:21;102095.44;;;10.84;63.15
64739;BME280;51175;51.186;0.276;2023-03-02T01:56:57;102094.59;;;10.83;63.18
64739;BME280;51175;51.186;0.276;2023-03-02T01:57:31;102093.81;;;10.83;63.09
64739;BME280;51175;51.186;0.276;2023-03-02T01:58:03;102090.34;;;10.82;63.05
64739;BME280;51175;51.186;0.276;2023-03-02T01:58:37;102091.41;;;10.81;63.19
64739;BME280;51175;51.186;0.276;2023-03-02T01:59:11;102084.25;;;10.82;63.04
64739;BME280;51175;51.186;0.276;2023-03-02T01:59:43;102090.34;;;10.82;63.10
64739;BME280;51175;51.186;0.276;2023-03-02T02:00:21;102091.41;;;10.81;63.16
64739;BME280;51175;51.186;0.276;2023-03-02T02:00:53;102094.81;;;10.82;63.05
64739;BME280;51175;51.186;0.276;2023-03-02T02:01:25;102092.41;;;10.80;63.03
64739;BME280;51175;51.186;0.276;2023-03-02T02:01:57;102092.41;;;10.80;63.17
64739;BME280;51175;51.186;0.276;2023-03-02T02:02:29;102090.81;;;10.79;63.13
64739;BME280;51175;51.186;0.276;2023-03-02T02:03:04;102086.56;;;10.78;63.17
64739;BME280;51175;51.186;0.276;2023-03-02T02:03:38;102087.34;;;10.78;63.10
64739;BME280;51175;51.186;0.276;2023-03-02T02:04:09;102091.84;;;10.78;63.08
64739;BME280;51175;51.186;0.276;2023-03-02T02:04:41;102080.44;;;10.77;63.15
64739;BME280;51175;51.186;0.276;2023-03-02T02:05:21;102087.34;;;10.78;63.30
64739;BME280;51175;51.186;0.276;2023-03-02T02:06:20;102082.28;;;10.77;63.19
64739;BME280;51175;51.186;0.276;2023-03-02T02:07:00;102081.50;;;10.76;62.91
64739;BME280;51175;51.186;0.276;2023-03-02T02:07:31;102080.69;;;10.76;63.03
64739;BME280;51175;51.186;0.276;2023-03-02T02:08:01;102082.50;;;10.75;63.09
64739;BME280;51175;51.186;0.276;2023-03-02T02:08:32;102078.03;;;10.76;62.91
64739;BME280;51175;51.186;0.276;2023-03-02T02:09:04;102077.44;;;10.74;63.20
64739;BME280;51175;51.186;0.276;2023-03-02T02:09:43;102084.34;;;10.75;63.13
64739;BME280;51175;51.186;0.276;2023-03-02T02:10:15;102079.06;;;10.75;63.06
64739;BME280;51175;51.186;0.276;2023-03-02T02:10:45;102086.19;;;10.74;63.11
64739;BME280;51175;51.186;0.276;2023-03-02T02:11:16;102085.38;;;10.74;63.17
64739;BME280;51175;51.186;0.276;2023-03-02T02:11:47;102080.91;;;10.74;63.22
64739;BME280;51175;51.186;0.276;2023-03-02T02:12:21;102084.34;;;10.75;63.16
64739;BME280;51175;51.186;0.276;2023-03-02T02:12:52;102083.53;;;10.74;63.10
64739;BME280;51175;51.186;0.276;2023-03-02T02:13:22;102084.34;;;10.75;63.09
64739;BME280;51175;51.186;0.276;2023-03-02T02:13:57;102081.94;;;10.73;63.16
64739;BME280;51175;51.186;0.276;2023-03-02T02:14:28;102080.06;;;10.74;63.15
64739;BME280;51175;51.186;0.276;2023-03-02T02:14:58;102078.47;;;10.73;63.13
64739;BME280;51175;51.186;0.276;2023-03-02T02:15:30;102086.41;;;10.73;63.13
64739;BME280;51175;51.186;0.276;2023-03-02T02:16:00;102080.31;;;10.72;63.23
64739;BME280;51175;51.186;0.276;2023-03-02T02:16:32;102080.31;;;10.72;63.07
64739;BME280;51175;51.186;0.276;2023-03-02T02:17:04;102077.66;;;10.72;63.04
64739;BME280;51175;51.186;0.276;2023-03-02T02:17:34;102079.50;;;10.72;63.06
64739;BME280;51175;51.186;0.276;2023-03-02T02:18:05;102069.94;;;10.71;63.04
64739;BME280;51175;51.186;0.276;2023-03-02T02:18:38;102075.25;;;10.71;63.09
64739;BME280;51175;51.186;0.276;2023-03-02T02:20:51;102078.09;;;10.69;63.09
64739;BME280;51175;51.186;0.276;2023-03-02T02:21:24;102080.75;;;10.69;62.95
64739;BME280;51175;51.186;0.276;2023-03-02T02:21:55;102078.91;;;10.70;63.16
64739;BME280;51175;51.186;0.276;2023-03-02T02:24:11;102069.38;;;10.68;63.21
64739;BME280;51175;51.186;0.276;2023-03-02T02:24:49;102073.84;;;10.68;63.10
64739;BME280;51175;51.186;0.276;2023-03-02T02:26:49;102067.16;;;10.65;62.99
64739;BME280;51175;51.186;0.276;2023-03-02T02:27:20;102074.28;;;10.65;63.17
64739;BME280;51175;51.186;0.276;2023-03-02T02:27:51;102069.00;;;10.65;63.28
64739;BME280;51175;51.186;0.276;2023-03-02T02:28:27;102070.03;;;10.64;63.15
64739;BME280;51175;51.186;0.276;2023-03-02T02:29:11;102063.13;;;10.63;63.07
64739;BME280;51175;51.186;0.276;2023-03-02T02:29:46;102063.13;;;10.63;63.17
64739;BME280;51175;51.186;0.276;2023-03-02T02:30:19;102060.72;;;10.61;63.28
64739;BME280;51175;51.186;0.276;2023-03-02T02:31:01;102065.78;;;10.63;63.07
64739;BME280;51175;51.186;0.276;2023-03-02T02:31:36;102055.44;;;10.61;63.18
64739;BME280;51175;51.186;0.276;2023-03-02T02:32:48;102062.53;;;10.61;63.36
64739;BME280;51175;51.186;0.276;2023-03-02T02:33:22;102059.09;;;10.60;63.13
64739;BME280;51175;51.186;0.276;2023-03-02T02:33:59;102061.75;;;10.60;62.97
64739;BME280;51175;51.186;0.276;2023-03-02T02:34:40;102056.47;;;10.60;63.27
64739;BME280;51175;51.186;0.276;2023-03-02T02:35:18;102061.75;;;10.60;63.11
64739;BME280;51175;51.186;0.276;2023-03-02T02:35:51;102055.66;;;10.60;63.27
64739;BME280;51175;51.186;0.276;2023-03-02T02:36:28;102056.69;;;10.59;63.09
64739;BME280;51175;51.186;0.276;2023-03-02T02:37:07;102058.50;;;10.58;63.34
64739;BME280;51175;51.186;0.276;2023-03-02T02:37:43;102057.69;;;10.58;63.12
64739;BME280;51175;51.186;0.276;2023-03-02T02:38:16;102057.69;;;10.58;63.06
64739;BME280;51175;51.186;0.276;2023-03-02T02:38:50;102053.22;;;10.58;63.12
64739;BME280;51175;51.186;0.276;2023-03-02T02:39:29;102061.16;;;10.58;63.25
64739;BME280;51175;51.186;0.276;2023-03-02T02:40:03;102062.97;;;10.58;63.29
64739;BME280;51175;51.186;0.276;2023-03-02T02:40:45;102065.63;;;10.58;63.32
64739;BME280;51175;51.186;0.276;2023-03-02T02:41:20;102060.56;;;10.56;63.26
64739;BME280;51175;51.186;0.276;2023-03-02T02:41:53;102064.22;;;10.55;63.15
64739;BME280;51175;51.186;0.276;2023-03-02T02:42:35;102063.41;;;10.54;63.12
64739;BME280;51175;51.186;0.276;2023-03-02T02:43:10;102058.94;;;10.55;63.26
64739;BME280;51175;51.186;0.276;2023-03-02T02:43:42;102057.13;;;10.55;63.24
64739;BME280;51175;51.186;0.276;2023-03-02T02:44:16;102064.22;;;10.55;63.27
64739;BME280;51175;51.186;0.276;2023-03-02T02:44:47;102061.59;;;10.55;63.17
64739;BME280;51175;51.186;0.276;2023-03-02T02:45:21;102053.88;;;10.53;63.21
64739;BME280;51175;51.186;0.276;2023-03-02T02:45:55;102060.00;;;10.54;63.03
64739;BME280;51175;51.186;0.276;2023-03-02T02:46:26;102058.34;;;10.53;63.08
64739;BME280;51175;51.186;0.276;2023-03-02T02:46:56;102050.44;;;10.53;63.26
64739;BME280;51175;51.186;0.276;2023-03-02T02:47:27;102053.06;;;10.53;63.19
64739;BME280;51175;51.186;0.276;2023-03-02T02:47:58;102055.72;;;10.53;63.33
64739;BME280;51175;51.186;0.276;2023-03-02T02:48:30;102050.44;;;10.53;63.14
64739;BME280;51175;51.186;0.276;2023-03-02T02:49:02;102053.06;;;10.53;63.23
64739;BME280;51175;51.186;0.276;2023-03-02T02:49:35;102051.25;;;10.53;63.10
64739;BME280;51175;51.186;0.276;2023-03-02T02:50:16;102053.06;;;10.53;63.08
64739;BME280;51175;51.186;0.276;2023-03-02T02:50:47;102055.72;;;10.53;63.17
64739;BME280;51175;51.186;0.276;2023-03-02T02:51:25;102055.72;;;10.53;63.26
64739;BME280;51175;51.186;0.276;2023-03-02T02:51:57;102054.94;;;10.52;63.23
64739;BME280;51175;51.186;0.276;2023-03-02T02:52:28;102059.38;;;10.52;63.21
64739;BME280;51175;51.186;0.276;2023-03-02T02:53:06;102048.81;;;10.52;63.21
64739;BME280;51175;51.186;0.276;2023-03-02T02:53:46;102048.00;;;10.51;63.22
64739;BME280;51175;51.186;0.276;2023-03-02T02:54:18;102056.75;;;10.52;63.14
64739;BME280;51175;51.186;0.276;2023-03-02T02:54:51;102055.94;;;10.51;63.09
64739;BME280;51175;51.186;0.276;2023-03-02T02:55:23;102058.56;;;10.51;63.03
64739;BME280;51175;51.186;0.276;2023-03-02T02:55:56;102050.66;;;10.51;63.20
64739;BME280;51175;51.186;0.276;2023-03-02T02:56:37;102061.44;;;10.50;63.06
64739;BME280;51175;51.186;0.276;2023-03-02T02:57:10;102059.59;;;10.50;63.11